createdAt,value
2019-04-28T00:01:02.323Z,7.60
2019-04-28T00:06:07.755Z,8.57
2019-04-28T00:11:12.787Z,8.20
2019-04-28T00:16:18.403Z,6.60
2019-04-28T00:21:46.145Z,7.33
2019-04-28T00:26:55.931Z,5.93
2019-04-28T00:32:02.193Z,4.30
2019-04-28T00:37:22.883Z,9.07
2019-04-28T00:42:27.907Z,8.00
2019-04-28T00:47:33.134Z,4.37
2019-04-28T00:52:38.589Z,6.60
2019-04-28T00:57:45.777Z,7.53
2019-04-28T01:02:50.990Z,7.50
2019-04-28T01:07:56.124Z,5.70
2019-04-28T01:13:02.125Z,5.83
2019-04-28T01:18:25.361Z,5.93
2019-04-28T01:23:30.645Z,9.03
2019-04-28T01:28:35.519Z,3.67
2019-04-28T01:34:04.862Z,5.40
2019-04-28T01:39:10.133Z,5.30
2019-04-28T01:44:15.361Z,4.17
2019-04-28T01:49:20.510Z,5.60
2019-04-28T01:54:25.683Z,8.77
2019-04-28T01:59:31.650Z,4.97
2019-04-28T02:04:36.645Z,3.40
2019-04-28T02:09:41.615Z,5.83
2019-04-28T02:14:46.694Z,6.37
2019-04-28T02:19:51.676Z,9.07
2019-04-28T02:24:56.727Z,4.47
2019-04-28T02:30:01.581Z,7.87
2019-04-28T02:35:10.616Z,5.67
2019-04-28T02:40:15.550Z,8.00
2019-04-28T02:45:21.918Z,5.73
2019-04-28T02:50:37.158Z,5.67
2019-04-28T02:55:42.590Z,9.07
2019-04-28T03:01:02.892Z,5.77
2019-04-28T03:05:55.244Z,4.30
2019-04-28T03:11:00.941Z,2.93
2019-04-28T03:16:06.091Z,6.63
2019-04-28T03:21:11.538Z,5.03
2019-04-28T03:26:24.353Z,6.63
2019-04-28T03:32:13.666Z,5.13
2019-04-28T03:36:54.017Z,5.33
2019-04-28T03:42:00.161Z,14.83
2019-04-28T03:47:05.239Z,5.47
2019-04-28T03:52:10.739Z,6.47
2019-04-28T03:57:16.237Z,5.80
2019-04-28T04:02:23.680Z,5.57
2019-04-28T04:07:26.957Z,6.90
2019-04-28T04:12:41.018Z,8.07
2019-04-28T04:18:03.406Z,9.80
2019-04-28T04:23:11.044Z,5.93
2019-04-28T04:28:15.098Z,10.90
2019-04-28T04:33:20.994Z,8.37
2019-04-28T04:38:26.194Z,9.57
2019-04-28T04:43:31.649Z,6.97
2019-04-28T04:48:36.729Z,6.43
2019-04-28T04:53:41.960Z,6.30
2019-04-28T04:58:46.442Z,9.23
2019-04-28T05:03:54.731Z,9.53
2019-04-28T05:08:59.917Z,6.50
2019-04-28T05:14:07.484Z,5.70
2019-04-28T05:19:12.414Z,10.20
2019-04-28T05:24:35.566Z,6.87
2019-04-28T05:29:40.598Z,10.00
2019-04-28T05:34:47.017Z,8.20
2019-04-28T05:39:53.196Z,9.50
2019-04-28T05:44:59.945Z,5.80
2019-04-28T05:50:21.355Z,10.50
2019-04-28T05:55:30.775Z,7.60
2019-04-28T06:00:54.047Z,10.53
2019-04-28T06:06:10.241Z,7.50
2019-04-28T06:11:31.126Z,13.20
2019-04-28T06:16:37.897Z,9.43
2019-04-28T06:21:42.442Z,9.70
2019-04-28T06:26:46.728Z,10.53
2019-04-28T06:31:51.607Z,12.47
2019-04-28T06:36:56.412Z,12.20
2019-04-28T06:42:00.740Z,10.63
2019-04-28T06:47:06.005Z,9.70
2019-04-28T06:52:12.700Z,13.73
2019-04-28T06:57:19.145Z,12.33
2019-04-28T07:02:24.251Z,15.30
2019-04-28T07:07:29.526Z,10.27
2019-04-28T07:12:34.900Z,11.83
2019-04-28T07:17:40.077Z,10.80
2019-04-28T07:22:45.585Z,11.60
2019-04-28T07:27:50.888Z,14.10
2019-04-28T07:32:56.419Z,13.90
2019-04-28T07:38:02.365Z,9.00
2019-04-28T07:43:07.522Z,10.37
2019-04-28T07:48:12.579Z,14.43
2019-04-28T07:53:29.529Z,13.77
2019-04-28T07:58:34.765Z,14.83
2019-04-28T08:03:49.432Z,12.40
2019-04-28T08:08:48.079Z,10.67
2019-04-28T08:13:53.303Z,11.07
2019-04-28T08:18:59.412Z,10.80
2019-04-28T08:24:04.437Z,12.47
2019-04-28T08:29:09.573Z,8.57
2019-04-28T08:34:15.347Z,10.90
2019-04-28T08:39:23.068Z,13.60
2019-04-28T08:44:27.609Z,11.90
2019-04-28T08:49:34.138Z,13.13
2019-04-28T08:54:40.667Z,11.67
2019-04-28T08:59:46.762Z,12.00
2019-04-28T09:04:52.457Z,10.67
2019-04-28T09:09:57.981Z,9.87
2019-04-28T09:15:03.880Z,7.60
2019-04-28T09:20:09.532Z,7.73
2019-04-28T09:25:14.892Z,12.03
2019-04-28T09:30:20.215Z,12.80
2019-04-28T09:35:25.473Z,13.50
2019-04-28T09:40:32.411Z,8.90
2019-04-28T09:45:43.291Z,11.83
2019-04-28T09:50:48.121Z,11.00
2019-04-28T09:55:52.297Z,7.10
2019-04-28T10:00:55.966Z,6.87
2019-04-28T10:06:00.597Z,6.80
2019-04-28T10:11:07.315Z,9.00
2019-04-28T10:16:11.873Z,27.97
2019-04-28T10:21:18.979Z,7.10
2019-04-28T10:26:24.074Z,7.30
2019-04-28T10:31:28.889Z,6.13
2019-04-28T10:36:35.137Z,7.07
2019-04-28T10:41:41.525Z,7.30
2019-04-28T10:46:45.782Z,5.83
2019-04-28T10:51:59.115Z,7.87
2019-04-28T10:56:55.990Z,7.83
2019-04-28T11:02:01.095Z,6.57
2019-04-28T11:07:07.545Z,7.83
2019-04-28T11:12:21.149Z,4.67
2019-04-28T11:17:27.242Z,4.50
2019-04-28T11:22:32.999Z,6.03
2019-04-28T11:27:38.107Z,9.60
2019-04-28T11:32:52.705Z,6.83
2019-04-28T11:37:57.909Z,7.30
2019-04-28T11:43:03.209Z,8.53
2019-04-28T11:48:08.458Z,6.20
2019-04-28T11:53:14.924Z,5.23
2019-04-28T11:58:21.107Z,6.27
2019-04-28T12:03:27.130Z,6.80
2019-04-28T12:08:33.346Z,10.47
2019-04-28T12:14:01.749Z,7.77
2019-04-28T12:19:36.553Z,5.40
2019-04-28T12:24:42.135Z,5.90
2019-04-28T12:29:47.613Z,5.30
2019-04-28T12:34:53.420Z,5.70
2019-04-28T12:40:00.426Z,6.07
2019-04-28T12:45:06.079Z,5.40
2019-04-28T12:50:19.759Z,5.43
2019-04-28T12:55:26.033Z,3.60
2019-04-28T13:01:03.244Z,4.33
2019-04-28T13:06:09.489Z,5.83
2019-04-28T13:11:13.456Z,6.50
2019-04-28T13:16:17.392Z,6.43
2019-04-28T13:21:21.320Z,6.93
2019-04-28T13:26:25.227Z,4.80
2019-04-28T13:31:30.357Z,5.80
2019-04-28T13:36:34.821Z,3.40
2019-04-28T13:41:38.621Z,21.20
2019-04-28T13:46:43.007Z,5.70
2019-04-28T13:51:47.444Z,3.17
2019-04-28T13:56:52.344Z,3.83
2019-04-28T14:02:17.379Z,4.13
2019-04-28T14:07:22.419Z,3.97
2019-04-28T14:12:26.761Z,3.90
2019-04-28T14:17:31.295Z,3.33
2019-04-28T14:22:37.455Z,3.80
2019-04-28T14:27:42.701Z,3.20
2019-04-28T14:32:48.169Z,1.90
2019-04-28T14:37:53.772Z,2.47
2019-04-28T14:42:59.971Z,4.00
2019-04-28T14:48:05.577Z,3.27
2019-04-28T14:53:11.387Z,6.13
2019-04-28T14:58:17.282Z,1.90
2019-04-28T15:03:24.129Z,2.33
2019-04-28T15:08:43.621Z,2.40
2019-04-28T15:13:50.382Z,2.30
2019-04-28T15:18:55.607Z,5.00
2019-04-28T15:24:01.396Z,3.50
2019-04-28T15:29:06.840Z,2.23
2019-04-28T15:34:12.118Z,1.87
2019-04-28T15:39:17.759Z,2.73
2019-04-28T15:44:24.019Z,1.97
2019-04-28T15:49:29.962Z,3.03
2019-04-28T15:54:35.278Z,2.37
2019-04-28T15:59:40.841Z,2.03
2019-04-28T16:04:46.127Z,5.00
2019-04-28T16:09:51.270Z,2.70
2019-04-28T16:14:56.208Z,2.43
2019-04-28T16:20:01.690Z,2.10
2019-04-28T16:25:07.447Z,4.87
2019-04-28T16:30:13.238Z,1.70
2019-04-28T16:35:19.166Z,2.33
2019-04-28T16:41:01.343Z,2.90
2019-04-28T16:46:06.311Z,3.00
2019-04-28T16:51:10.741Z,7.07
2019-04-28T16:56:35.062Z,2.93
2019-04-28T17:01:53.686Z,2.63
2019-04-28T17:06:59.452Z,1.80
2019-04-28T17:12:04.261Z,2.00
2019-04-28T17:17:10.288Z,1.90
2019-04-28T17:22:17.200Z,1.43
2019-04-28T17:27:22.573Z,1.30
2019-04-28T17:32:28.348Z,2.20
2019-04-28T17:37:33.902Z,1.97
2019-04-28T17:42:39.809Z,1.57
2019-04-28T17:47:46.509Z,1.43
2019-04-28T17:52:51.654Z,1.40
2019-04-28T17:57:56.751Z,1.73
2019-04-28T18:03:20.911Z,3.33
2019-04-28T18:08:26.416Z,5.90
2019-04-28T18:13:31.860Z,1.60
2019-04-28T18:18:41.832Z,1.50
2019-04-28T18:23:47.730Z,3.53
2019-04-28T18:28:53.759Z,2.60
2019-04-28T18:34:30.004Z,1.43
2019-04-28T18:39:53.644Z,1.40
2019-04-28T18:44:59.128Z,1.30
2019-04-28T18:50:04.782Z,2.70
2019-04-28T18:55:10.460Z,1.03
2019-04-28T19:00:19.868Z,1.23
2019-04-28T19:05:31.120Z,1.00
2019-04-28T19:10:53.228Z,1.50
2019-04-28T19:16:30.072Z,1.53
2019-04-28T19:21:34.545Z,1.73
2019-04-28T19:26:39.099Z,1.90
2019-04-28T19:31:43.652Z,1.80
2019-04-28T19:36:48.468Z,5.53
2019-04-28T19:41:53.060Z,4.40
2019-04-28T19:46:57.558Z,1.97
2019-04-28T19:52:01.959Z,2.60
2019-04-28T19:57:19.422Z,2.23
2019-04-28T20:02:26.552Z,4.60
2019-04-28T20:07:31.760Z,2.00
2019-04-28T20:12:37.367Z,2.60
2019-04-28T20:17:42.598Z,2.67
2019-04-28T20:22:47.913Z,4.33
2019-04-28T20:27:53.025Z,2.40
2019-04-28T20:33:06.948Z,2.63
2019-04-28T20:38:13.845Z,2.63
2019-04-28T20:43:20.731Z,2.00
2019-04-28T20:48:26.424Z,2.27
2019-04-28T20:53:32.044Z,2.90
2019-04-28T20:58:38.037Z,3.23
2019-04-28T21:03:44.077Z,3.80
2019-04-28T21:08:50.099Z,2.20
2019-04-28T21:13:55.742Z,2.43
2019-04-28T21:19:01.902Z,3.23
2019-04-28T21:24:06.926Z,2.33
2019-04-28T21:29:12.387Z,2.63
2019-04-28T21:34:19.270Z,2.70
2019-04-28T21:39:25.335Z,5.67
2019-04-28T21:44:51.558Z,2.53
2019-04-28T21:49:56.508Z,2.50
2019-04-28T21:55:02.484Z,2.80
2019-04-28T22:00:10.176Z,2.50
2019-04-28T22:05:15.400Z,3.10
2019-04-28T22:10:20.707Z,4.00
2019-04-28T22:15:26.001Z,3.00
2019-04-28T22:20:30.505Z,6.50
2019-04-28T22:25:35.693Z,2.87
2019-04-28T22:30:41.100Z,3.60
2019-04-28T22:35:45.989Z,5.07
2019-04-28T22:40:51.260Z,2.60
2019-04-28T22:45:57.171Z,2.63
2019-04-28T22:51:02.628Z,6.20
2019-04-28T22:56:28.784Z,4.50
2019-04-28T23:01:35.895Z,12.00
2019-04-28T23:06:40.570Z,2.77
2019-04-28T23:11:44.612Z,3.23
2019-04-28T23:16:49.125Z,2.60
2019-04-28T23:22:16.847Z,5.60
2019-04-28T23:27:21.930Z,2.10
2019-04-28T23:32:27.075Z,4.47
2019-04-28T23:37:31.556Z,2.50
2019-04-28T23:42:54.130Z,2.53
2019-04-28T23:47:58.858Z,4.43
2019-04-28T23:53:08.773Z,2.47
2019-04-28T23:58:14.638Z,2.60
